createdAt,value
2018-11-28T00:00:54.714Z,1.30
2018-11-28T00:01:54.352Z,1.50
2018-11-28T00:02:54.343Z,1.20
2018-11-28T00:03:54.329Z,1.50
2018-11-28T00:04:54.323Z,1.80
2018-11-28T00:05:54.308Z,1.50
2018-11-28T00:06:54.316Z,1.50
2018-11-28T00:07:54.283Z,1.40
2018-11-28T00:08:54.279Z,1.40
2018-11-28T00:09:54.262Z,1.60
2018-11-28T00:10:54.258Z,1.30
2018-11-28T00:11:54.247Z,1.40
2018-11-28T00:12:54.249Z,1.30
2018-11-28T00:13:54.225Z,1.50
2018-11-28T00:14:54.210Z,1.60
2018-11-28T00:15:54.202Z,1.60
2018-11-28T00:16:54.192Z,1.20
2018-11-28T00:17:54.182Z,1.30
2018-11-28T00:18:54.211Z,1.40
2018-11-28T00:19:54.163Z,1.10
2018-11-28T00:20:54.150Z,1.20
2018-11-28T00:21:54.139Z,1.60
2018-11-28T00:22:54.122Z,1.60
2018-11-28T00:23:54.123Z,1.30
2018-11-28T00:24:54.193Z,1.40
2018-11-28T00:25:58.846Z,1.10
2018-11-28T00:26:54.082Z,1.50
2018-11-28T00:27:54.072Z,1.40
2018-11-28T00:29:04.657Z,1.40
2018-11-28T00:29:54.050Z,1.50
2018-11-28T00:30:54.075Z,1.40
2018-11-28T00:31:54.030Z,1.60
2018-11-28T00:32:54.020Z,1.50
2018-11-28T00:33:54.012Z,1.40
2018-11-28T00:34:54.002Z,1.30
2018-11-28T00:35:53.989Z,1.70
2018-11-28T00:36:54.741Z,1.60
2018-11-28T00:37:53.965Z,1.40
2018-11-28T00:38:53.955Z,1.20
2018-11-28T00:39:53.947Z,1.30
2018-11-28T00:40:53.934Z,1.50
2018-11-28T00:41:53.928Z,1.50
2018-11-28T00:42:54.269Z,1.40
2018-11-28T00:43:53.906Z,1.40
2018-11-28T00:44:53.895Z,1.60
2018-11-28T00:45:53.879Z,1.30
2018-11-28T00:46:53.875Z,1.30
2018-11-28T00:47:53.863Z,1.30
2018-11-28T00:48:53.888Z,1.40
2018-11-28T00:49:53.837Z,1.40
2018-11-28T00:50:53.826Z,1.40
2018-11-28T00:51:53.817Z,1.70
2018-11-28T00:52:53.807Z,1.20
2018-11-28T00:53:53.801Z,1.10
2018-11-28T00:54:54.200Z,1.40
2018-11-28T00:55:53.774Z,1.80
2018-11-28T00:56:53.770Z,1.60
2018-11-28T00:57:53.753Z,1.60
2018-11-28T00:58:53.745Z,1.80
2018-11-28T01:00:04.723Z,1.50
2018-11-28T01:00:53.727Z,1.40
2018-11-28T01:01:53.713Z,1.40
2018-11-28T01:02:53.710Z,1.40
2018-11-28T01:03:53.697Z,1.90
2018-11-28T01:04:53.680Z,2.30
2018-11-28T01:05:53.719Z,1.60
2018-11-28T01:06:53.662Z,1.50
2018-11-28T01:07:53.648Z,1.70
2018-11-28T01:08:53.640Z,1.30
2018-11-28T01:09:53.633Z,1.50
2018-11-28T01:10:53.626Z,1.50
2018-11-28T01:11:54.239Z,1.20
2018-11-28T01:12:53.605Z,1.40
2018-11-28T01:13:53.591Z,1.60
2018-11-28T01:14:53.581Z,1.40
2018-11-28T01:15:53.569Z,1.50
2018-11-28T01:16:53.566Z,1.40
2018-11-28T01:17:53.563Z,1.40
2018-11-28T01:18:53.533Z,1.30
2018-11-28T01:19:53.528Z,1.40
2018-11-28T01:20:53.522Z,1.40
2018-11-28T01:21:53.508Z,1.60
2018-11-28T01:22:53.503Z,1.40
2018-11-28T01:23:53.532Z,1.30
2018-11-28T01:24:53.487Z,1.50
2018-11-28T01:25:53.465Z,1.30
2018-11-28T01:26:53.450Z,1.50
2018-11-28T01:27:53.442Z,1.40
2018-11-28T01:28:53.429Z,1.50
2018-11-28T01:29:53.441Z,1.50
2018-11-28T01:31:03.336Z,1.50
2018-11-28T01:31:53.397Z,1.40
2018-11-28T01:32:53.390Z,1.30
2018-11-28T01:33:53.380Z,1.60
2018-11-28T01:34:53.366Z,1.90
2018-11-28T01:35:54.132Z,1.30
2018-11-28T01:36:53.347Z,1.50
2018-11-28T01:37:53.345Z,1.50
2018-11-28T01:38:53.328Z,1.30
2018-11-28T01:39:53.320Z,1.30
2018-11-28T01:40:53.313Z,1.70
2018-11-28T01:41:53.336Z,1.60
2018-11-28T01:42:53.281Z,1.60
2018-11-28T01:43:53.271Z,1.60
2018-11-28T01:44:53.266Z,1.80
2018-11-28T01:45:53.263Z,1.50
2018-11-28T01:46:53.250Z,1.20
2018-11-28T01:47:53.745Z,1.20
2018-11-28T01:48:53.220Z,1.60
2018-11-28T01:49:53.210Z,1.40
2018-11-28T01:50:53.207Z,1.70
2018-11-28T01:51:53.190Z,1.60
2018-11-28T01:52:53.176Z,1.20
2018-11-28T01:53:53.746Z,1.50
2018-11-28T01:54:53.160Z,1.60
2018-11-28T01:55:53.154Z,1.50
2018-11-28T01:56:53.135Z,1.60
2018-11-28T01:57:53.149Z,1.40
2018-11-28T01:58:53.120Z,1.70
2018-11-28T01:59:53.139Z,1.60
2018-11-28T02:00:53.096Z,1.60
2018-11-28T02:02:03.451Z,1.50
2018-11-28T02:02:53.078Z,1.30
2018-11-28T02:03:53.066Z,1.50
2018-11-28T02:04:53.061Z,1.50
2018-11-28T02:05:53.766Z,1.60
2018-11-28T02:06:53.039Z,1.20
2018-11-28T02:07:53.023Z,1.80
2018-11-28T02:08:53.011Z,1.40
2018-11-28T02:09:53.005Z,1.30
2018-11-28T02:10:53.006Z,1.30
2018-11-28T02:11:53.020Z,1.40
2018-11-28T02:12:52.974Z,1.60
2018-11-28T02:13:52.963Z,1.60
2018-11-28T02:14:52.952Z,1.50
2018-11-28T02:15:52.950Z,1.80
2018-11-28T02:16:52.929Z,1.30
2018-11-28T02:17:53.707Z,1.50
2018-11-28T02:18:52.911Z,1.70
2018-11-28T02:19:52.903Z,1.70
2018-11-28T02:20:52.891Z,1.80
2018-11-28T02:21:52.886Z,1.90
2018-11-28T02:22:52.871Z,1.60
2018-11-28T02:23:53.239Z,1.90
2018-11-28T02:24:52.846Z,1.80
2018-11-28T02:25:52.838Z,1.80
2018-11-28T02:26:52.831Z,1.50
2018-11-28T02:27:52.825Z,1.50
2018-11-28T02:28:52.812Z,1.70
2018-11-28T02:29:52.811Z,1.50
2018-11-28T02:30:52.789Z,1.70
2018-11-28T02:31:52.778Z,1.80
2018-11-28T02:33:02.845Z,1.70
2018-11-28T02:33:52.751Z,1.60
2018-11-28T02:34:52.740Z,1.50
2018-11-28T02:35:52.753Z,1.70
2018-11-28T02:36:52.725Z,1.30
2018-11-28T02:37:52.721Z,1.60
2018-11-28T02:38:52.701Z,1.40
2018-11-28T02:39:52.693Z,1.60
2018-11-28T02:40:52.689Z,1.50
2018-11-28T02:41:52.764Z,1.90
2018-11-28T02:42:52.661Z,1.50
2018-11-28T02:43:52.649Z,1.50
2018-11-28T02:44:52.642Z,1.40
2018-11-28T02:45:52.632Z,1.70
2018-11-28T02:46:52.619Z,1.80
2018-11-28T02:47:52.646Z,1.80
2018-11-28T02:48:52.598Z,1.40
2018-11-28T02:49:52.587Z,1.50
2018-11-28T02:50:52.581Z,1.70
2018-11-28T02:51:52.572Z,1.60
2018-11-28T02:52:52.562Z,2.20
2018-11-28T02:53:52.571Z,1.40
2018-11-28T02:54:52.534Z,1.90
2018-11-28T02:55:52.527Z,2.10
2018-11-28T02:56:52.517Z,1.90
2018-11-28T02:57:52.504Z,1.70
2018-11-28T02:58:52.500Z,1.90
2018-11-28T02:59:52.521Z,2.10
2018-11-28T03:00:52.479Z,2.20
2018-11-28T03:01:52.460Z,2.20
2018-11-28T03:02:52.450Z,1.90
2018-11-28T03:04:03.102Z,2.10
2018-11-28T03:04:52.432Z,2.30
2018-11-28T03:05:52.457Z,2.20
2018-11-28T03:06:52.416Z,2.10
2018-11-28T03:07:52.403Z,1.90
2018-11-28T03:08:52.395Z,1.90
2018-11-28T03:09:52.377Z,2.30
2018-11-28T03:10:52.371Z,2.70
2018-11-28T03:11:52.807Z,2.20
2018-11-28T03:12:52.353Z,2.10
2018-11-28T03:13:52.339Z,1.80
2018-11-28T03:14:52.325Z,2.20
2018-11-28T03:15:52.316Z,1.90
2018-11-28T03:16:52.305Z,1.60
2018-11-28T03:17:52.342Z,1.70
2018-11-28T03:18:52.286Z,1.90
2018-11-28T03:19:52.274Z,1.70
2018-11-28T03:20:52.268Z,1.80
2018-11-28T03:21:52.254Z,1.80
2018-11-28T03:22:52.250Z,2.10
2018-11-28T03:23:52.282Z,1.50
2018-11-28T03:24:52.222Z,1.50
2018-11-28T03:25:52.210Z,1.70
2018-11-28T03:26:52.207Z,1.50
2018-11-28T03:27:52.196Z,1.80
2018-11-28T03:28:52.181Z,1.70
2018-11-28T03:29:52.225Z,1.50
2018-11-28T03:30:52.163Z,1.80
2018-11-28T03:31:52.150Z,1.70
2018-11-28T03:32:52.149Z,1.80
2018-11-28T03:33:52.128Z,1.60
2018-11-28T03:35:02.827Z,2.00
2018-11-28T03:35:52.111Z,1.50
2018-11-28T03:36:52.095Z,1.90
2018-11-28T03:37:52.090Z,1.80
2018-11-28T03:38:52.081Z,1.70
2018-11-28T03:39:52.081Z,1.80
2018-11-28T03:40:52.095Z,1.50
2018-11-28T03:41:52.046Z,1.70
2018-11-28T03:42:52.039Z,2.00
2018-11-28T03:43:52.029Z,1.80
2018-11-28T03:44:52.013Z,1.70
2018-11-28T03:45:52.008Z,1.80
2018-11-28T03:46:52.033Z,2.50
2018-11-28T03:47:51.998Z,1.50
2018-11-28T03:48:51.982Z,2.10
2018-11-28T03:49:51.962Z,1.70
2018-11-28T03:50:51.951Z,2.30
2018-11-28T03:51:51.946Z,2.20
2018-11-28T03:52:51.950Z,1.80
2018-11-28T03:53:51.935Z,1.90
2018-11-28T03:54:51.927Z,1.50
2018-11-28T03:55:51.900Z,1.60
2018-11-28T03:56:51.890Z,1.80
2018-11-28T03:57:51.920Z,1.60
2018-11-28T03:58:51.950Z,1.80
2018-11-28T03:59:51.863Z,1.50
2018-11-28T04:00:51.850Z,1.80
2018-11-28T04:01:51.845Z,2.40
2018-11-28T04:02:51.828Z,2.60
2018-11-28T04:03:51.819Z,2.00
2018-11-28T04:04:51.848Z,1.90
2018-11-28T04:06:01.980Z,2.10
2018-11-28T04:06:51.787Z,1.90
2018-11-28T04:07:51.786Z,1.70
2018-11-28T04:08:51.767Z,1.90
2018-11-28T04:09:51.772Z,1.50
2018-11-28T04:10:51.787Z,1.80
2018-11-28T04:11:51.733Z,1.60
2018-11-28T04:12:51.725Z,1.40
2018-11-28T04:13:51.722Z,1.80
2018-11-28T04:14:51.713Z,1.70
2018-11-28T04:15:51.700Z,1.70
2018-11-28T04:16:51.723Z,1.60
2018-11-28T04:17:51.674Z,1.50
2018-11-28T04:18:51.665Z,1.40
2018-11-28T04:19:51.659Z,1.60
2018-11-28T04:20:51.650Z,1.70
2018-11-28T04:21:51.630Z,2.00
2018-11-28T04:22:51.668Z,1.70
2018-11-28T04:23:51.611Z,1.80
2018-11-28T04:24:51.611Z,1.80
2018-11-28T04:25:51.595Z,1.80
2018-11-28T04:26:51.586Z,1.60
2018-11-28T04:27:51.568Z,1.50
2018-11-28T04:28:51.600Z,1.70
2018-11-28T04:29:51.557Z,1.70
2018-11-28T04:30:51.551Z,1.60
2018-11-28T04:31:51.528Z,1.50
2018-11-28T04:32:51.517Z,1.70
2018-11-28T04:33:51.512Z,1.80
2018-11-28T04:34:51.799Z,1.60
2018-11-28T04:35:51.488Z,1.60
2018-11-28T04:37:03.107Z,1.50
2018-11-28T04:37:51.467Z,1.50
2018-11-28T04:38:51.455Z,1.80
2018-11-28T04:39:51.451Z,1.70
2018-11-28T04:40:51.475Z,1.60
2018-11-28T04:41:51.432Z,1.70
2018-11-28T04:42:51.422Z,1.60
2018-11-28T04:43:51.404Z,2.00
2018-11-28T04:44:51.397Z,1.60
2018-11-28T04:45:51.389Z,1.80
2018-11-28T04:46:51.396Z,3.20
2018-11-28T04:47:51.369Z,2.20
2018-11-28T04:48:51.364Z,2.40
2018-11-28T04:49:51.348Z,1.70
2018-11-28T04:50:51.339Z,1.90
2018-11-28T04:51:51.324Z,1.90
2018-11-28T04:52:51.335Z,1.40
2018-11-28T04:53:51.300Z,2.00
2018-11-28T04:54:51.303Z,1.70
2018-11-28T04:55:51.287Z,1.60
2018-11-28T04:56:51.280Z,1.40
2018-11-28T04:57:51.269Z,1.50
2018-11-28T04:58:51.330Z,1.70
2018-11-28T04:59:51.245Z,2.00
2018-11-28T05:00:51.233Z,1.50
2018-11-28T05:01:51.223Z,1.40
2018-11-28T05:02:51.219Z,1.20
2018-11-28T05:03:51.206Z,1.30
2018-11-28T05:04:51.222Z,1.30
2018-11-28T05:05:51.188Z,1.90
2018-11-28T05:06:51.170Z,1.50
2018-11-28T05:08:01.758Z,1.60
2018-11-28T05:08:51.150Z,1.70
2018-11-28T05:09:51.136Z,1.30
2018-11-28T05:10:51.148Z,1.70
2018-11-28T05:11:51.121Z,1.90
2018-11-28T05:12:51.109Z,2.50
2018-11-28T05:13:51.105Z,1.50
2018-11-28T05:14:51.104Z,1.50
2018-11-28T05:15:51.078Z,1.50
2018-11-28T05:16:51.112Z,1.70
2018-11-28T05:17:51.059Z,1.80
2018-11-28T05:18:51.049Z,1.70
2018-11-28T05:19:51.037Z,1.70
2018-11-28T05:20:51.030Z,1.60
2018-11-28T05:21:51.024Z,1.50
2018-11-28T05:22:51.343Z,1.60
2018-11-28T05:23:50.994Z,1.60
2018-11-28T05:24:50.985Z,1.60
2018-11-28T05:25:50.972Z,1.90
2018-11-28T05:26:50.962Z,1.30
2018-11-28T05:27:50.995Z,1.70
2018-11-28T05:28:50.978Z,1.20
2018-11-28T05:29:50.938Z,1.30
2018-11-28T05:30:50.922Z,1.40
2018-11-28T05:31:50.911Z,1.50
2018-11-28T05:32:50.903Z,1.40
2018-11-28T05:33:50.904Z,1.70
2018-11-28T05:34:50.926Z,1.70
2018-11-28T05:35:50.871Z,1.80
2018-11-28T05:36:50.855Z,1.50
2018-11-28T05:37:50.851Z,1.20
2018-11-28T05:39:00.821Z,1.50
2018-11-28T05:39:50.825Z,1.60
2018-11-28T05:40:50.839Z,1.20
2018-11-28T05:41:50.811Z,1.20
2018-11-28T05:42:50.799Z,1.70
2018-11-28T05:43:50.794Z,1.60
2018-11-28T05:44:50.805Z,1.50
2018-11-28T05:45:50.763Z,1.70
2018-11-28T05:46:50.848Z,1.30
2018-11-28T05:47:50.748Z,1.30
2018-11-28T05:48:50.731Z,1.20
2018-11-28T05:49:50.728Z,1.20
2018-11-28T05:50:50.715Z,1.20
2018-11-28T05:51:50.711Z,1.40
2018-11-28T05:52:50.738Z,1.40
2018-11-28T05:53:50.680Z,1.20
2018-11-28T05:54:50.672Z,1.30
2018-11-28T05:55:50.668Z,1.40
2018-11-28T05:56:50.651Z,1.50
2018-11-28T05:57:50.651Z,1.20
2018-11-28T05:58:50.654Z,1.50
2018-11-28T05:59:50.621Z,1.40
2018-11-28T06:00:50.614Z,1.30
2018-11-28T06:01:50.600Z,1.30
2018-11-28T06:02:50.590Z,1.50
2018-11-28T06:03:50.594Z,2.10
2018-11-28T06:04:50.689Z,2.80
2018-11-28T06:05:50.559Z,1.30
2018-11-28T06:06:50.553Z,1.30
2018-11-28T06:07:50.543Z,1.40
2018-11-28T06:08:50.532Z,1.50
2018-11-28T06:10:02.879Z,1.10
2018-11-28T06:10:50.508Z,1.30
2018-11-28T06:11:50.501Z,1.40
2018-11-28T06:12:50.488Z,1.10
2018-11-28T06:13:50.480Z,1.20
2018-11-28T06:14:50.529Z,1.30
2018-11-28T06:15:51.639Z,1.20
2018-11-28T06:16:50.445Z,1.40
2018-11-28T06:17:50.546Z,1.50
2018-11-28T06:18:50.442Z,1.50
2018-11-28T06:19:50.413Z,1.30
2018-11-28T06:20:50.405Z,1.10
2018-11-28T06:21:50.417Z,1.60
2018-11-28T06:22:50.384Z,1.10
2018-11-28T06:23:50.388Z,1.80
2018-11-28T06:24:50.583Z,1.50
2018-11-28T06:25:50.351Z,1.20
2018-11-28T06:26:50.340Z,1.50
2018-11-28T06:27:50.374Z,1.30
2018-11-28T06:28:50.324Z,1.40
2018-11-28T06:29:50.317Z,1.20
2018-11-28T06:30:50.307Z,1.20
2018-11-28T06:31:50.292Z,1.70
2018-11-28T06:32:51.470Z,1.20
2018-11-28T06:33:50.315Z,1.40
2018-11-28T06:34:50.264Z,1.20
2018-11-28T06:35:50.254Z,1.20
2018-11-28T06:36:50.281Z,1.60
2018-11-28T06:37:50.227Z,1.10
2018-11-28T06:38:50.218Z,1.20
2018-11-28T06:39:50.226Z,1.20
2018-11-28T06:41:00.340Z,1.20
2018-11-28T06:41:50.188Z,1.20
2018-11-28T06:42:50.199Z,1.30
2018-11-28T06:43:50.174Z,1.20
2018-11-28T06:44:50.165Z,1.30
2018-11-28T06:45:50.176Z,1.10
2018-11-28T06:46:50.141Z,1.20
2018-11-28T06:47:50.130Z,1.00
2018-11-28T06:48:50.127Z,1.30
2018-11-28T06:49:50.126Z,1.50
2018-11-28T06:50:50.102Z,1.30
2018-11-28T06:51:50.891Z,1.20
2018-11-28T06:52:50.078Z,1.20
2018-11-28T06:53:50.075Z,1.10
2018-11-28T06:54:50.058Z,1.60
2018-11-28T06:55:50.046Z,1.00
2018-11-28T06:56:50.038Z,1.10
2018-11-28T06:57:50.093Z,1.00
2018-11-28T06:58:50.013Z,0.90
2018-11-28T06:59:50.011Z,1.20
2018-11-28T07:00:49.998Z,1.10
2018-11-28T07:01:49.987Z,1.00
2018-11-28T07:02:49.980Z,1.10
2018-11-28T07:03:50.454Z,1.10
2018-11-28T07:04:50.009Z,1.80
2018-11-28T07:05:49.942Z,1.60
2018-11-28T07:06:49.948Z,1.50
2018-11-28T07:07:49.926Z,1.20
2018-11-28T07:08:49.916Z,1.00
2018-11-28T07:09:49.934Z,1.30
2018-11-28T07:10:49.908Z,1.10
2018-11-28T07:12:00.396Z,1.10
2018-11-28T07:12:49.875Z,1.20
2018-11-28T07:13:49.865Z,1.00
2018-11-28T07:14:49.849Z,1.30
2018-11-28T07:15:49.885Z,1.30
2018-11-28T07:16:49.828Z,1.10
2018-11-28T07:17:49.818Z,1.10
2018-11-28T07:18:49.813Z,1.20
2018-11-28T07:19:49.809Z,1.30
2018-11-28T07:20:49.906Z,1.20
2018-11-28T07:21:49.807Z,1.40
2018-11-28T07:22:49.772Z,1.00
2018-11-28T07:23:49.762Z,1.30
2018-11-28T07:24:49.747Z,1.10
2018-11-28T07:25:49.739Z,1.00
2018-11-28T07:26:49.727Z,1.00
2018-11-28T07:27:49.750Z,1.20
2018-11-28T07:28:49.704Z,1.60
2018-11-28T07:29:49.695Z,1.20
2018-11-28T07:30:49.688Z,1.50
2018-11-28T07:31:49.675Z,1.10
2018-11-28T07:32:49.662Z,1.10
2018-11-28T07:33:49.674Z,1.10
2018-11-28T07:34:49.652Z,1.00
2018-11-28T07:35:49.643Z,1.20
2018-11-28T07:36:49.622Z,1.10
2018-11-28T07:37:49.612Z,0.80
2018-11-28T07:38:49.596Z,1.10
2018-11-28T07:39:49.624Z,0.90
2018-11-28T07:40:49.586Z,0.90
2018-11-28T07:41:49.589Z,1.20
2018-11-28T07:42:59.677Z,1.00
2018-11-28T07:43:49.544Z,1.40
2018-11-28T07:44:49.537Z,0.90
2018-11-28T07:45:50.718Z,0.80
2018-11-28T07:46:49.513Z,1.10
2018-11-28T07:47:49.527Z,1.30
2018-11-28T07:48:49.499Z,1.10
2018-11-28T07:49:49.484Z,0.90
2018-11-28T07:50:49.472Z,0.70
2018-11-28T07:51:49.532Z,1.40
2018-11-28T07:52:49.503Z,1.10
2018-11-28T07:53:49.440Z,1.20
2018-11-28T07:54:49.437Z,1.40
2018-11-28T07:55:49.425Z,1.10
2018-11-28T07:56:49.410Z,1.30
2018-11-28T07:57:49.449Z,1.40
2018-11-28T07:58:49.395Z,1.30
2018-11-28T07:59:49.389Z,1.30
2018-11-28T08:00:49.374Z,1.30
2018-11-28T08:01:49.361Z,1.30
2018-11-28T08:02:49.348Z,0.80
2018-11-28T08:03:49.685Z,1.00
2018-11-28T08:04:49.336Z,1.50
2018-11-28T08:05:49.316Z,1.20
2018-11-28T08:06:49.309Z,0.80
2018-11-28T08:07:49.304Z,1.20
2018-11-28T08:08:49.294Z,1.10
2018-11-28T08:09:49.317Z,1.50
2018-11-28T08:10:49.266Z,1.10
2018-11-28T08:11:49.262Z,1.00
2018-11-28T08:12:49.244Z,1.30
2018-11-28T08:13:59.352Z,1.20
2018-11-28T08:14:49.232Z,1.00
2018-11-28T08:15:49.469Z,1.10
2018-11-28T08:16:49.205Z,0.90
2018-11-28T08:17:49.197Z,1.10
2018-11-28T08:18:49.193Z,0.90
2018-11-28T08:19:49.177Z,0.80
2018-11-28T08:20:49.161Z,1.20
2018-11-28T08:21:49.414Z,0.80
2018-11-28T08:22:49.149Z,0.80
2018-11-28T08:23:49.131Z,0.90
2018-11-28T08:24:49.123Z,1.10
2018-11-28T08:25:49.119Z,0.80
2018-11-28T08:26:49.109Z,1.10
2018-11-28T08:27:49.420Z,0.90
2018-11-28T08:28:49.112Z,1.00
2018-11-28T08:29:49.069Z,1.40
2018-11-28T08:30:49.081Z,2.10
2018-11-28T08:31:49.048Z,1.20
2018-11-28T08:32:49.045Z,1.00
2018-11-28T08:33:49.430Z,1.30
2018-11-28T08:34:49.025Z,1.40
2018-11-28T08:35:49.015Z,1.10
2018-11-28T08:36:48.998Z,0.80
2018-11-28T08:37:49.000Z,1.00
2018-11-28T08:38:48.983Z,1.00
2018-11-28T08:39:49.005Z,1.30
2018-11-28T08:40:48.954Z,0.90
2018-11-28T08:41:48.955Z,1.20
2018-11-28T08:42:48.949Z,0.90
2018-11-28T08:43:48.928Z,0.70
2018-11-28T08:45:01.503Z,0.90
2018-11-28T08:45:48.902Z,0.70
2018-11-28T08:46:48.891Z,1.10
2018-11-28T08:47:48.888Z,0.60
2018-11-28T08:48:48.885Z,0.80
2018-11-28T08:49:48.869Z,0.70
2018-11-28T08:50:48.888Z,0.90
2018-11-28T08:51:48.853Z,0.70
2018-11-28T08:52:48.901Z,0.80
2018-11-28T08:53:48.823Z,0.90
2018-11-28T08:54:48.826Z,0.70
2018-11-28T08:55:48.810Z,1.00
2018-11-28T08:56:49.578Z,1.00
2018-11-28T08:57:48.779Z,0.80
2018-11-28T08:58:48.843Z,1.50
2018-11-28T08:59:48.846Z,0.80
2018-11-28T09:00:48.779Z,1.10
2018-11-28T09:01:48.735Z,1.00
2018-11-28T09:02:49.420Z,0.80
2018-11-28T09:03:48.715Z,0.90
2018-11-28T09:04:48.728Z,1.00
2018-11-28T09:05:48.732Z,0.80
2018-11-28T09:06:48.693Z,0.90
2018-11-28T09:07:48.678Z,1.00
2018-11-28T09:08:49.374Z,0.90
2018-11-28T09:09:49.813Z,1.00
2018-11-28T09:10:48.696Z,0.90
2018-11-28T09:11:48.638Z,1.20
2018-11-28T09:12:48.624Z,1.20
2018-11-28T09:13:48.608Z,0.70
2018-11-28T09:14:48.658Z,0.90
2018-11-28T09:15:58.702Z,1.20
2018-11-28T09:16:48.653Z,0.80
2018-11-28T09:17:48.576Z,0.90
2018-11-28T09:18:48.564Z,1.00
2018-11-28T09:19:48.546Z,1.00
2018-11-28T09:20:49.684Z,1.10
2018-11-28T09:21:48.528Z,1.00
2018-11-28T09:22:48.517Z,1.10
2018-11-28T09:23:48.506Z,0.90
2018-11-28T09:24:48.508Z,0.90
2018-11-28T09:25:48.483Z,0.90
2018-11-28T09:26:48.510Z,0.90
2018-11-28T09:27:48.465Z,1.00
2018-11-28T09:28:48.467Z,1.50
2018-11-28T09:29:48.452Z,1.30
2018-11-28T09:30:48.430Z,0.80
2018-11-28T09:31:48.420Z,1.10
2018-11-28T09:32:48.935Z,1.00
2018-11-28T09:33:48.403Z,0.80
2018-11-28T09:34:48.399Z,1.00
2018-11-28T09:35:48.389Z,1.00
2018-11-28T09:36:48.367Z,1.00
2018-11-28T09:37:48.361Z,0.90
2018-11-28T09:38:48.417Z,0.80
2018-11-28T09:39:48.349Z,0.90
2018-11-28T09:40:48.329Z,0.90
2018-11-28T09:41:48.317Z,0.90
2018-11-28T09:42:48.310Z,0.90
2018-11-28T09:43:48.297Z,0.80
2018-11-28T09:44:48.319Z,1.20
2018-11-28T09:45:48.274Z,0.90
2018-11-28T09:46:58.212Z,0.90
2018-11-28T09:47:48.256Z,1.20
2018-11-28T09:48:48.245Z,0.80
2018-11-28T09:49:48.243Z,1.30
2018-11-28T09:50:48.263Z,0.60
2018-11-28T09:51:48.214Z,1.10
2018-11-28T09:52:48.199Z,0.80
2018-11-28T09:53:48.186Z,0.50
2018-11-28T09:54:48.183Z,0.90
2018-11-28T09:55:48.172Z,0.60
2018-11-28T09:56:48.196Z,0.70
2018-11-28T09:57:48.145Z,0.70
2018-11-28T09:58:48.148Z,0.60
2018-11-28T09:59:48.126Z,0.50
2018-11-28T10:00:48.118Z,0.40
2018-11-28T10:01:48.105Z,0.80
2018-11-28T10:02:48.138Z,0.90
2018-11-28T10:03:48.086Z,1.20
2018-11-28T10:04:48.080Z,1.10
2018-11-28T10:05:48.066Z,1.10
2018-11-28T10:06:48.088Z,0.90
2018-11-28T10:07:48.046Z,1.00
2018-11-28T10:08:48.455Z,0.80
2018-11-28T10:09:48.032Z,0.90
2018-11-28T10:10:48.016Z,0.70
2018-11-28T10:11:48.005Z,1.00
2018-11-28T10:12:47.991Z,0.90
2018-11-28T10:13:47.997Z,1.00
2018-11-28T10:14:48.436Z,1.30
2018-11-28T10:15:47.962Z,0.90
2018-11-28T10:16:48.688Z,0.80
2018-11-28T10:17:57.883Z,0.90
2018-11-28T10:18:47.931Z,1.20
2018-11-28T10:19:47.918Z,1.10
2018-11-28T10:20:47.944Z,1.00
2018-11-28T10:21:47.902Z,1.10
2018-11-28T10:22:47.887Z,1.10
2018-11-28T10:23:47.880Z,1.10
2018-11-28T10:24:47.877Z,1.10
2018-11-28T10:25:47.856Z,1.40
2018-11-28T10:26:47.890Z,1.40
2018-11-28T10:27:47.835Z,0.90
2018-11-28T10:28:47.829Z,1.00
2018-11-28T10:29:47.814Z,1.00
2018-11-28T10:30:47.802Z,1.00
2018-11-28T10:31:47.798Z,1.00
2018-11-28T10:32:47.938Z,0.90
2018-11-28T10:33:47.779Z,1.10
2018-11-28T10:34:47.763Z,1.40
2018-11-28T10:35:47.760Z,0.90
2018-11-28T10:36:47.741Z,1.40
2018-11-28T10:37:47.736Z,1.20
2018-11-28T10:38:47.740Z,1.10
2018-11-28T10:39:47.710Z,1.40
2018-11-28T10:40:47.705Z,1.00
2018-11-28T10:41:47.689Z,1.10
2018-11-28T10:42:47.681Z,2.00
2018-11-28T10:43:47.673Z,1.00
2018-11-28T10:44:47.955Z,1.00
2018-11-28T10:45:47.664Z,1.20
2018-11-28T10:46:47.640Z,1.20
2018-11-28T10:47:47.627Z,1.60
2018-11-28T10:48:57.699Z,1.30
2018-11-28T10:49:47.604Z,1.20
2018-11-28T10:50:47.616Z,1.30
2018-11-28T10:51:50.298Z,1.50
2018-11-28T10:52:47.576Z,1.20
2018-11-28T10:53:47.566Z,1.00
2018-11-28T10:54:47.566Z,1.40
2018-11-28T10:55:47.549Z,1.20
2018-11-28T10:56:47.574Z,1.20
2018-11-28T10:57:47.524Z,1.50
2018-11-28T10:58:47.511Z,1.30
2018-11-28T10:59:47.507Z,1.70
2018-11-28T11:00:47.502Z,1.70
2018-11-28T11:01:47.494Z,2.90
2018-11-28T11:02:48.004Z,1.60
2018-11-28T11:03:47.464Z,1.60
2018-11-28T11:04:47.449Z,1.40
2018-11-28T11:05:47.441Z,1.40
2018-11-28T11:06:47.438Z,1.60
2018-11-28T11:07:47.420Z,1.60
2018-11-28T11:08:47.463Z,0.90
2018-11-28T11:09:47.401Z,2.10
2018-11-28T11:10:47.390Z,1.70
2018-11-28T11:11:47.672Z,2.10
2018-11-28T11:12:47.383Z,2.10
2018-11-28T11:13:47.362Z,2.90
2018-11-28T11:14:47.443Z,2.30
2018-11-28T11:15:47.340Z,2.50
2018-11-28T11:16:47.329Z,2.00
2018-11-28T11:17:47.319Z,2.90
2018-11-28T11:18:47.304Z,2.30
2018-11-28T11:19:58.478Z,2.60
2018-11-28T11:20:47.287Z,2.80
2018-11-28T11:21:47.276Z,2.20
2018-11-28T11:22:47.267Z,2.50
2018-11-28T11:23:47.263Z,2.30
2018-11-28T11:24:47.243Z,2.40
2018-11-28T11:25:47.475Z,2.00
2018-11-28T11:26:47.232Z,2.30
2018-11-28T11:27:47.223Z,2.40
2018-11-28T11:28:47.211Z,2.60
2018-11-28T11:29:47.195Z,2.60
2018-11-28T11:30:47.285Z,2.60
2018-11-28T11:31:47.218Z,2.70
2018-11-28T11:32:47.157Z,1.50
2018-11-28T11:33:47.153Z,1.50
2018-11-28T11:34:47.151Z,1.40
2018-11-28T11:35:47.128Z,1.50
2018-11-28T11:36:47.124Z,1.00
2018-11-28T11:37:47.971Z,1.20
2018-11-28T11:38:47.116Z,1.80
2018-11-28T11:39:47.095Z,1.40
2018-11-28T11:40:47.082Z,1.40
2018-11-28T11:41:47.071Z,1.30
2018-11-28T11:42:47.056Z,1.80
2018-11-28T11:43:47.450Z,1.40
2018-11-28T11:44:47.050Z,1.40
2018-11-28T11:45:47.029Z,1.50
2018-11-28T11:46:47.017Z,1.20
2018-11-28T11:47:47.001Z,1.20
2018-11-28T11:48:46.995Z,1.30
2018-11-28T11:49:47.022Z,1.10
2018-11-28T11:50:57.638Z,1.80
2018-11-28T11:51:47.951Z,1.40
2018-11-28T11:52:46.975Z,1.70
2018-11-28T11:53:46.946Z,1.40
2018-11-28T11:54:46.937Z,1.30
2018-11-28T11:55:46.939Z,1.60
2018-11-28T11:56:46.968Z,1.40
2018-11-28T11:57:46.907Z,1.50
2018-11-28T11:58:46.886Z,1.50
2018-11-28T11:59:46.884Z,1.80
2018-11-28T12:00:46.871Z,1.60
2018-11-28T12:01:46.896Z,1.80
2018-11-28T12:02:46.853Z,1.90
2018-11-28T12:03:46.839Z,2.20
2018-11-28T12:04:46.824Z,1.60
2018-11-28T12:05:46.815Z,1.90
2018-11-28T12:06:46.803Z,1.90
2018-11-28T12:07:46.985Z,1.80
2018-11-28T12:08:46.863Z,1.70
2018-11-28T12:09:46.784Z,1.60
2018-11-28T12:10:46.765Z,1.80
2018-11-28T12:11:46.758Z,1.80
2018-11-28T12:12:51.668Z,1.70
2018-11-28T12:13:47.771Z,1.70
2018-11-28T12:14:46.731Z,1.80
2018-11-28T12:15:46.715Z,1.70
2018-11-28T12:16:46.704Z,1.60
2018-11-28T12:17:46.696Z,2.00
2018-11-28T12:18:46.687Z,1.90
2018-11-28T12:19:46.710Z,1.80
2018-11-28T12:20:46.668Z,1.80
2018-11-28T12:21:56.776Z,1.80
2018-11-28T12:22:46.643Z,1.50
2018-11-28T12:23:46.635Z,1.40
2018-11-28T12:24:46.619Z,1.90
2018-11-28T12:25:47.383Z,1.40
2018-11-28T12:26:46.601Z,1.70
2018-11-28T12:27:46.601Z,1.50
2018-11-28T12:28:46.580Z,1.60
2018-11-28T12:29:46.569Z,1.90
2018-11-28T12:30:46.564Z,1.70
2018-11-28T12:31:46.566Z,1.60
2018-11-28T12:32:46.538Z,1.40
2018-11-28T12:33:46.536Z,1.70
2018-11-28T12:34:50.382Z,1.90
2018-11-28T12:35:46.523Z,1.80
2018-11-28T12:36:46.497Z,2.10
2018-11-28T12:37:47.275Z,2.10
2018-11-28T12:38:46.473Z,2.00
2018-11-28T12:39:46.465Z,1.50
2018-11-28T12:40:46.451Z,2.10
2018-11-28T12:41:46.451Z,1.90
2018-11-28T12:42:46.428Z,1.60
2018-11-28T12:43:46.458Z,1.70
2018-11-28T12:44:46.417Z,2.50
2018-11-28T12:45:46.403Z,1.90
2018-11-28T12:46:46.391Z,2.10
2018-11-28T12:47:46.391Z,2.10
2018-11-28T12:48:46.375Z,1.80
2018-11-28T12:49:46.400Z,2.60
2018-11-28T12:50:46.353Z,3.60
2018-11-28T12:51:46.344Z,2.10
2018-11-28T12:52:58.100Z,2.20
2018-11-28T12:53:46.315Z,2.10
2018-11-28T12:54:46.314Z,2.30
2018-11-28T12:55:46.313Z,2.10
2018-11-28T12:56:46.284Z,2.30
2018-11-28T12:57:46.278Z,2.70
2018-11-28T12:58:46.269Z,2.60
2018-11-28T12:59:46.261Z,2.40
2018-11-28T13:00:46.297Z,2.10
2018-11-28T13:01:46.512Z,2.10
2018-11-28T13:02:46.223Z,2.30
2018-11-28T13:03:46.214Z,2.10
2018-11-28T13:04:46.202Z,2.30
2018-11-28T13:05:46.202Z,2.20
2018-11-28T13:06:46.180Z,2.40
2018-11-28T13:07:46.211Z,2.00
2018-11-28T13:08:46.159Z,2.40
2018-11-28T13:09:46.155Z,3.00
2018-11-28T13:10:46.146Z,2.70
2018-11-28T13:11:46.138Z,2.30
2018-11-28T13:12:46.122Z,2.70
2018-11-28T13:13:46.882Z,3.70
2018-11-28T13:14:46.101Z,2.00
2018-11-28T13:15:46.095Z,2.30
2018-11-28T13:16:46.081Z,2.40
2018-11-28T13:17:46.074Z,2.70
2018-11-28T13:18:46.056Z,2.50